createdAt,value
2022-08-08T00:02:03.899Z,99497.78
2022-08-08T00:04:35.475Z,99508.00
2022-08-08T00:07:16.580Z,99515.78
2022-08-08T00:10:14.371Z,99503.13
2022-08-08T00:12:56.305Z,99512.13
2022-08-08T00:15:56.532Z,99517.53
2022-08-08T00:18:35.201Z,99503.81
2022-08-08T00:21:06.078Z,99519.13
2022-08-08T00:23:47.749Z,99515.31
2022-08-08T00:26:31.717Z,99519.44
2022-08-08T00:29:44.869Z,99509.78
2022-08-08T00:32:36.354Z,99512.78
2022-08-08T00:35:18.938Z,99515.50
2022-08-08T00:38:16.750Z,99515.50
2022-08-08T00:41:14.661Z,99514.66
2022-08-08T00:43:55.927Z,99517.66
2022-08-08T00:46:26.122Z,99514.94
2022-08-08T00:49:22.215Z,99516.78
2022-08-08T00:52:20.177Z,99517.25
2022-08-08T00:55:16.717Z,99514.81
2022-08-08T00:58:12.694Z,99508.25
2022-08-08T01:01:08.794Z,99518.31
2022-08-08T01:03:59.897Z,99503.75
2022-08-08T01:07:06.187Z,99515.91
2022-08-08T01:10:05.963Z,99522.63
2022-08-08T01:13:00.461Z,99519.31
2022-08-08T01:15:53.483Z,99518.31
2022-08-08T01:18:53.544Z,99514.22
2022-08-08T01:22:09.800Z,99522.97
2022-08-08T01:25:14.204Z,99518.19
2022-08-08T01:28:02.096Z,99520.34
2022-08-08T01:30:59.228Z,99526.38
2022-08-08T01:34:00.264Z,99527.22
2022-08-08T01:37:02.119Z,99523.97
2022-08-08T01:40:03.525Z,99526.72
2022-08-08T01:42:43.117Z,99514.91
2022-08-08T01:45:54.332Z,99521.31
2022-08-08T01:48:35.533Z,99522.91
2022-08-08T01:51:32.167Z,99519.84
2022-08-08T01:55:25.447Z,99518.63
2022-08-08T01:57:26.371Z,99516.13
2022-08-08T02:00:17.140Z,99518.38
2022-08-08T02:02:49.974Z,99531.94
2022-08-08T02:05:56.544Z,99531.44
2022-08-08T02:08:39.092Z,99527.09
2022-08-08T02:11:53.052Z,99535.28
2022-08-08T02:14:26.371Z,99538.34
2022-08-08T02:17:17.961Z,99525.09
2022-08-08T02:20:07.218Z,99533.75
2022-08-08T02:22:55.401Z,99541.06
2022-08-08T02:25:43.512Z,99534.88
2022-08-08T02:28:35.145Z,99533.28
2022-08-08T02:31:43.962Z,99539.75
2022-08-08T02:34:32.586Z,99533.28
2022-08-08T02:37:51.856Z,99523.94
2022-08-08T02:40:28.171Z,99532.56
2022-08-08T02:44:39.009Z,99535.03
2022-08-08T02:46:28.364Z,99542.41
2022-08-08T02:48:55.136Z,99541.00
2022-08-08T02:51:30.058Z,99544.50
2022-08-08T02:54:44.251Z,99545.28
2022-08-08T02:57:40.565Z,99550.97
2022-08-08T03:00:31.843Z,99543.09
2022-08-08T03:05:01.699Z,99538.75
2022-08-08T03:06:38.212Z,99538.50
2022-08-08T03:09:41.489Z,99548.47
2022-08-08T03:12:36.223Z,99488.66
2022-08-08T03:15:58.954Z,99546.50
2022-08-08T03:18:34.450Z,99545.63
2022-08-08T03:21:01.720Z,99549.63
2022-08-08T03:23:54.718Z,99540.25
2022-08-08T03:26:32.672Z,99550.66
2022-08-08T03:29:21.025Z,99555.75
2022-08-08T03:32:22.515Z,99552.53
2022-08-08T03:34:57.235Z,99534.88
2022-08-08T03:38:52.916Z,99556.19
2022-08-08T03:40:29.673Z,99561.44
2022-08-08T03:43:16.433Z,99536.84
2022-08-08T03:46:03.341Z,99559.41
2022-08-08T03:49:08.974Z,99569.28
2022-08-08T03:51:19.319Z,99559.03
2022-08-08T03:53:54.835Z,99569.38
2022-08-08T03:56:31.924Z,99572.22
2022-08-08T03:58:59.374Z,99565.59
2022-08-08T04:02:15.970Z,99574.72
2022-08-08T04:04:23.153Z,99569.69
2022-08-08T04:07:01.020Z,99570.38
2022-08-08T04:09:47.196Z,99563.41
2022-08-08T04:12:22.675Z,99575.47
2022-08-08T04:14:50.522Z,99578.53
2022-08-08T04:17:22.557Z,99571.53
2022-08-08T04:20:05.931Z,99578.56
2022-08-08T04:22:35.531Z,99577.72
2022-08-08T04:25:02.585Z,99585.38
2022-08-08T04:28:02.451Z,99588.53
2022-08-08T04:30:18.419Z,99583.72
2022-08-08T04:32:47.985Z,99589.16
2022-08-08T04:35:16.987Z,99565.44
2022-08-08T04:37:43.756Z,99585.84
2022-08-08T04:40:12.781Z,99589.22
2022-08-08T04:42:46.890Z,99592.09
2022-08-08T04:45:23.598Z,99603.03
2022-08-08T04:47:53.343Z,99590.63
2022-08-08T04:50:23.938Z,99605.78
2022-08-08T04:52:58.646Z,99615.31
2022-08-08T04:55:29.320Z,99598.06
2022-08-08T04:58:17.563Z,99618.72
2022-08-08T05:00:48.561Z,99621.31
2022-08-08T05:03:19.114Z,99626.59
2022-08-08T05:06:13.007Z,99627.56
2022-08-08T05:08:51.764Z,99627.75
2022-08-08T05:11:22.646Z,99632.69
2022-08-08T05:13:54.803Z,99638.81
2022-08-08T05:16:54.355Z,99636.47
2022-08-08T05:20:09.354Z,99639.91
2022-08-08T05:22:01.803Z,99638.09
2022-08-08T05:24:30.885Z,99646.66
2022-08-08T05:26:58.560Z,99636.19
2022-08-08T05:29:29.073Z,99630.22
2022-08-08T05:32:03.810Z,99635.00
2022-08-08T05:34:41.773Z,99640.41
2022-08-08T05:37:17.060Z,99630.97
2022-08-08T05:39:56.668Z,99635.91
2022-08-08T05:42:36.585Z,99640.09
2022-08-08T05:45:10.178Z,99634.63
2022-08-08T05:48:00.164Z,99638.22
2022-08-08T05:50:30.035Z,99640.59
2022-08-08T05:53:54.441Z,99639.69
2022-08-08T05:56:11.278Z,99622.97
2022-08-08T05:58:53.817Z,99651.81
2022-08-08T06:01:52.778Z,99650.53
2022-08-08T06:04:23.229Z,99643.47
2022-08-08T06:06:53.101Z,99645.88
2022-08-08T06:09:58.331Z,99644.91
2022-08-08T06:12:14.482Z,99647.81
2022-08-08T06:14:47.630Z,99646.31
2022-08-08T06:17:19.518Z,99652.09
2022-08-08T06:19:48.502Z,99636.66
2022-08-08T06:25:04.733Z,99630.72
2022-08-08T06:27:55.450Z,99646.91
2022-08-08T06:30:28.283Z,99649.50
2022-08-08T06:33:01.291Z,99662.44
2022-08-08T06:36:04.120Z,99663.69
2022-08-08T06:38:27.623Z,99656.09
2022-08-08T06:41:05.579Z,99660.19
2022-08-08T06:43:36.426Z,99648.44
2022-08-08T06:46:08.783Z,99658.25
2022-08-08T06:48:38.239Z,99662.28
2022-08-08T06:51:07.684Z,99661.06
2022-08-08T06:53:39.299Z,99670.78
2022-08-08T06:56:09.075Z,99667.44
2022-08-08T06:58:36.799Z,99665.56
2022-08-08T07:01:11.531Z,99663.31
2022-08-08T07:04:37.412Z,99666.91
2022-08-08T07:06:48.845Z,99658.59
2022-08-08T07:09:21.131Z,99658.41
2022-08-08T07:11:51.827Z,99661.88
2022-08-08T07:14:26.943Z,99666.22
2022-08-08T07:17:02.812Z,99668.19
2022-08-08T07:20:07.775Z,99659.56
2022-08-08T07:23:00.269Z,99656.22
2022-08-08T07:25:32.682Z,99664.75
2022-08-08T07:28:18.849Z,99673.97
2022-08-08T07:30:47.056Z,99664.84
2022-08-08T07:33:17.681Z,99669.63
2022-08-08T07:35:48.585Z,99671.16
2022-08-08T07:38:21.137Z,99666.53
2022-08-08T07:40:55.852Z,99679.53
2022-08-08T07:43:36.730Z,99687.03
2022-08-08T07:46:23.860Z,99697.63
2022-08-08T07:48:51.851Z,99692.19
2022-08-08T07:51:23.900Z,99692.47
2022-08-08T07:54:06.872Z,99687.31
2022-08-08T07:56:59.910Z,99681.31
2022-08-08T07:59:48.497Z,99668.13
2022-08-08T08:02:34.635Z,99678.53
2022-08-08T08:05:14.946Z,99684.53
2022-08-08T08:07:45.802Z,99668.47
2022-08-08T08:10:15.986Z,99673.97
2022-08-08T08:12:52.469Z,99659.63
2022-08-08T08:15:26.665Z,99678.53
2022-08-08T08:18:02.284Z,99666.84
2022-08-08T08:20:30.990Z,99675.09
2022-08-08T08:22:57.745Z,99667.44
2022-08-08T08:25:42.935Z,99688.50
2022-08-08T08:28:11.621Z,99670.16
2022-08-08T08:30:48.668Z,99664.09
2022-08-08T08:33:15.447Z,99668.84
2022-08-08T08:36:18.556Z,99660.31
2022-08-08T08:38:29.228Z,99663.16
2022-08-08T08:40:59.239Z,99651.03
2022-08-08T08:43:28.935Z,99660.38
2022-08-08T08:45:57.161Z,99658.59
2022-08-08T08:48:24.996Z,99673.53
2022-08-08T08:50:53.758Z,99685.00
2022-08-08T08:53:54.891Z,99679.09
2022-08-08T08:56:11.405Z,99669.53
2022-08-08T08:58:46.999Z,99663.31
2022-08-08T09:01:26.764Z,99653.22
2022-08-08T09:03:59.866Z,99675.22
2022-08-08T09:06:35.049Z,99669.25
2022-08-08T09:09:26.136Z,99650.75
2022-08-08T09:12:06.073Z,99662.34
2022-08-08T09:14:34.039Z,99661.13
2022-08-08T09:17:09.668Z,99653.34
2022-08-08T09:21:59.983Z,99645.41
2022-08-08T09:22:27.328Z,99642.47
2022-08-08T09:24:56.321Z,99683.25
2022-08-08T09:27:56.215Z,99661.34
2022-08-08T09:30:17.739Z,99626.34
2022-08-08T09:33:12.207Z,99659.91
2022-08-08T09:35:50.992Z,99635.44
2022-08-08T09:38:52.655Z,99649.69
2022-08-08T09:41:28.431Z,99641.53
2022-08-08T09:44:15.376Z,99654.78
2022-08-08T09:46:57.723Z,99597.44
2022-08-08T09:49:42.667Z,99638.31
2022-08-08T09:55:31.660Z,99651.84
2022-08-08T09:58:19.868Z,99640.91
2022-08-08T10:00:57.495Z,99647.97
2022-08-08T10:03:31.334Z,99628.72
2022-08-08T10:05:59.864Z,99630.69
2022-08-08T10:08:30.630Z,99631.19
2022-08-08T10:11:11.928Z,99620.53
2022-08-08T10:13:42.880Z,99627.13
2022-08-08T10:16:09.783Z,99623.41
2022-08-08T10:18:36.993Z,99629.41
2022-08-08T10:21:22.752Z,99631.41
2022-08-08T10:23:58.974Z,99626.63
2022-08-08T10:26:56.677Z,99626.75
2022-08-08T10:29:58.631Z,99613.56
2022-08-08T10:32:37.760Z,99632.53
2022-08-08T10:35:20.529Z,99614.47
2022-08-08T10:38:05.187Z,99624.13
2022-08-08T10:40:33.165Z,99625.53
2022-08-08T10:43:03.933Z,99620.50
2022-08-08T10:45:56.168Z,99611.16
2022-08-08T10:48:57.738Z,99607.56
2022-08-08T10:51:26.177Z,99612.56
2022-08-08T10:53:57.765Z,99626.38
2022-08-08T10:56:27.814Z,99623.41
2022-08-08T10:59:09.725Z,99617.41
2022-08-08T11:01:41.775Z,99603.53
2022-08-08T11:04:10.536Z,99615.44
2022-08-08T11:06:41.835Z,99619.78
2022-08-08T11:09:19.785Z,99595.94
2022-08-08T11:12:05.098Z,99606.44
2022-08-08T11:14:50.790Z,99615.88
2022-08-08T11:17:58.149Z,99605.59
2022-08-08T11:20:17.865Z,99590.34
2022-08-08T11:22:51.144Z,99573.47
2022-08-08T11:25:53.418Z,99569.50
2022-08-08T11:28:13.697Z,99592.22
2022-08-08T11:30:50.406Z,99593.78
2022-08-08T11:33:52.537Z,99586.94
2022-08-08T11:36:15.264Z,99585.06
2022-08-08T11:38:55.246Z,99596.94
2022-08-08T11:41:24.538Z,99572.31
2022-08-08T11:43:53.885Z,99593.41
2022-08-08T11:46:26.665Z,99579.03
2022-08-08T11:48:55.549Z,99584.63
2022-08-08T11:51:38.066Z,99573.78
2022-08-08T11:54:09.908Z,99568.22
2022-08-08T11:56:57.606Z,99569.78
2022-08-08T11:59:58.592Z,99588.97
2022-08-08T12:02:34.838Z,99586.25
2022-08-08T12:05:04.555Z,99576.31
2022-08-08T12:07:49.712Z,99567.72
2022-08-08T12:10:21.694Z,99557.09
2022-08-08T12:12:51.863Z,99570.28
2022-08-08T12:15:42.246Z,99570.94
2022-08-08T12:18:24.984Z,99557.72
2022-08-08T12:20:54.973Z,99565.25
2022-08-08T12:23:43.986Z,99559.09
2022-08-08T12:26:28.596Z,99551.44
2022-08-08T12:29:21.208Z,99556.53
2022-08-08T12:32:13.297Z,99561.50
2022-08-08T12:35:04.865Z,99541.84
2022-08-08T12:38:00.961Z,99528.28
2022-08-08T12:40:56.500Z,99554.44
2022-08-08T12:43:46.251Z,99551.34
2022-08-08T12:46:26.659Z,99556.28
2022-08-08T12:49:22.107Z,99554.84
2022-08-08T12:51:59.118Z,99538.00
2022-08-08T12:54:36.902Z,99523.53
2022-08-08T12:57:17.586Z,99527.47
2022-08-08T13:00:04.808Z,99538.84
2022-08-08T13:02:37.852Z,99522.47
2022-08-08T13:05:27.071Z,99530.50
2022-08-08T13:08:18.513Z,99526.38
2022-08-08T13:10:58.037Z,99527.50
2022-08-08T13:13:37.409Z,99521.75
2022-08-08T13:16:25.274Z,99519.81
2022-08-08T13:19:00.642Z,99528.22
2022-08-08T13:21:58.153Z,99532.91
2022-08-08T13:24:40.940Z,99525.06
2022-08-08T13:27:40.922Z,99521.63
2022-08-08T13:30:08.276Z,99530.97
2022-08-08T13:32:39.574Z,99520.59
2022-08-08T13:35:24.721Z,99506.72
2022-08-08T13:38:07.121Z,99509.94
2022-08-08T13:40:35.618Z,99513.06
2022-08-08T13:43:03.746Z,99508.00
2022-08-08T13:45:31.697Z,99500.38
2022-08-08T13:48:03.885Z,99520.28
2022-08-08T13:50:49.300Z,99502.66
2022-08-08T13:53:34.145Z,99503.13
2022-08-08T13:56:11.202Z,99504.91
2022-08-08T13:58:57.388Z,99505.22
2022-08-08T14:01:41.734Z,99507.03
2022-08-08T14:04:23.079Z,99506.75
2022-08-08T14:06:58.893Z,99506.16
2022-08-08T14:10:05.125Z,99488.09
2022-08-08T14:12:26.339Z,99492.78
2022-08-08T14:14:55.379Z,99497.06
2022-08-08T14:17:58.606Z,99503.97
2022-08-08T14:20:15.068Z,99482.75
2022-08-08T14:23:21.442Z,99511.94
2022-08-08T14:26:10.813Z,99489.53
2022-08-08T14:28:39.980Z,99481.81
2022-08-08T14:31:09.911Z,99503.31
2022-08-08T14:33:37.359Z,99493.78
2022-08-08T14:36:06.694Z,99508.25
2022-08-08T14:38:52.709Z,99495.25
2022-08-08T14:41:53.633Z,99482.44
2022-08-08T14:44:19.605Z,99491.50
2022-08-08T14:46:58.046Z,99483.31
2022-08-08T14:49:37.912Z,99465.81
2022-08-08T14:52:21.834Z,99483.84
2022-08-08T14:54:50.093Z,99475.59
2022-08-08T14:57:17.185Z,99487.41
2022-08-08T14:59:51.451Z,99486.56
2022-08-08T15:02:25.774Z,99484.56
2022-08-08T15:05:10.691Z,99477.38
2022-08-08T15:07:40.644Z,99485.75
2022-08-08T15:10:12.659Z,99463.38
2022-08-08T15:12:40.845Z,99456.88
2022-08-08T15:15:09.576Z,99481.53
2022-08-08T15:17:42.367Z,99464.75
2022-08-08T15:20:14.134Z,99475.78
2022-08-08T15:22:42.131Z,99470.56
2022-08-08T15:25:17.962Z,99482.00
2022-08-08T15:28:03.426Z,99474.81
2022-08-08T15:30:43.800Z,99471.41
2022-08-08T15:33:21.007Z,99476.31
2022-08-08T15:35:59.617Z,99468.66
2022-08-08T15:38:27.216Z,99458.63
2022-08-08T15:40:53.949Z,99475.88
2022-08-08T15:43:35.295Z,99463.97
2022-08-08T15:46:03.473Z,99492.31
2022-08-08T15:48:30.990Z,99476.88
2022-08-08T15:51:06.451Z,99478.16
2022-08-08T15:53:49.003Z,99474.09
2022-08-08T15:56:20.037Z,99471.34
2022-08-08T15:58:48.495Z,99498.44
2022-08-08T16:01:16.503Z,99484.97
2022-08-08T16:03:45.969Z,99492.00
2022-08-08T16:06:28.475Z,99490.94
2022-08-08T16:13:00.628Z,99494.47
2022-08-08T16:13:11.561Z,99483.13
2022-08-08T16:14:32.855Z,99489.19
2022-08-08T16:17:00.567Z,99481.38
2022-08-08T16:19:27.578Z,99490.81
2022-08-08T16:21:57.325Z,99492.91
2022-08-08T16:24:24.112Z,99499.13
2022-08-08T16:26:51.229Z,99496.97
2022-08-08T16:29:37.035Z,99502.00
2022-08-08T16:32:13.053Z,99506.03
2022-08-08T16:34:46.672Z,99506.63
2022-08-08T16:37:13.605Z,99504.59
2022-08-08T16:39:59.898Z,99501.06
2022-08-08T16:42:30.048Z,99502.34
2022-08-08T16:44:59.612Z,99510.25
2022-08-08T16:47:31.904Z,99508.44
2022-08-08T16:50:13.674Z,99520.56
2022-08-08T16:55:18.254Z,99513.59
2022-08-08T16:55:53.285Z,99526.19
2022-08-08T16:58:20.504Z,99522.41
2022-08-08T17:00:48.658Z,99523.44
2022-08-08T17:03:18.145Z,99524.47
2022-08-08T17:05:53.872Z,99525.38
2022-08-08T17:08:20.724Z,99527.97
2022-08-08T17:10:58.235Z,99530.59
2022-08-08T17:13:49.935Z,99540.41
2022-08-08T17:16:17.823Z,99531.34
2022-08-08T17:18:49.120Z,99539.03
2022-08-08T17:21:18.822Z,99548.38
2022-08-08T17:24:02.039Z,99545.22
2022-08-08T17:26:31.590Z,99552.06
2022-08-08T17:29:04.014Z,99543.88
2022-08-08T17:31:45.808Z,99557.38
2022-08-08T17:34:37.556Z,99568.91
2022-08-08T17:37:03.885Z,99566.69
2022-08-08T17:40:04.375Z,99563.53
2022-08-08T17:42:23.972Z,99574.50
2022-08-08T17:44:52.671Z,99573.75
2022-08-08T17:47:23.797Z,99578.03
2022-08-08T17:49:52.957Z,99587.28
2022-08-08T17:52:28.200Z,99567.16
2022-08-08T17:54:56.122Z,99584.84
2022-08-08T17:57:24.023Z,99593.81
2022-08-08T17:59:51.790Z,99598.38
2022-08-08T18:02:29.715Z,99595.19
2022-08-08T18:04:58.737Z,99602.28
2022-08-08T18:08:01.727Z,99610.59
2022-08-08T18:10:15.495Z,99609.78
2022-08-08T18:12:45.969Z,99618.31
2022-08-08T18:15:13.649Z,99613.13
2022-08-08T18:18:09.623Z,99626.16
2022-08-08T18:20:43.192Z,99629.28
2022-08-08T18:23:15.399Z,99629.59
2022-08-08T18:25:43.731Z,99635.06
2022-08-08T18:28:12.897Z,99639.66
2022-08-08T18:30:40.938Z,99638.88
2022-08-08T18:33:10.585Z,99637.78
2022-08-08T18:35:48.743Z,99644.56
2022-08-08T18:38:17.273Z,99645.75
2022-08-08T18:40:46.443Z,99647.34
2022-08-08T18:43:14.763Z,99648.28
2022-08-08T18:46:00.770Z,99637.22
2022-08-08T18:48:33.083Z,99650.72
2022-08-08T18:51:02.039Z,99662.81
2022-08-08T18:53:29.682Z,99651.66
2022-08-08T18:56:23.575Z,99666.34
2022-08-08T18:58:50.676Z,99646.94
2022-08-08T19:02:24.933Z,99677.38
2022-08-08T19:04:10.760Z,99672.81
2022-08-08T19:06:39.394Z,99676.06
2022-08-08T19:09:13.375Z,99681.66
2022-08-08T19:11:45.568Z,99663.47
2022-08-08T19:14:20.666Z,99683.47
2022-08-08T19:16:48.223Z,99680.81
2022-08-08T19:19:21.903Z,99681.84
2022-08-08T19:21:50.227Z,99668.13
2022-08-08T19:24:41.711Z,99684.69
2022-08-08T19:27:06.985Z,99674.69
2022-08-08T19:29:35.690Z,99678.91
2022-08-08T19:32:12.593Z,99685.09
2022-08-08T19:34:41.499Z,99674.69
2022-08-08T19:37:16.044Z,99678.28
2022-08-08T19:39:43.694Z,99680.41
2022-08-08T19:42:13.547Z,99684.03
2022-08-08T19:44:45.302Z,99685.34
2022-08-08T19:47:14.314Z,99656.97
2022-08-08T19:49:43.387Z,99672.03
2022-08-08T19:52:34.778Z,99662.13
2022-08-08T19:55:06.023Z,99675.31
2022-08-08T19:57:35.553Z,99652.53
2022-08-08T20:00:11.493Z,99669.19
2022-08-08T20:02:52.890Z,99671.22
2022-08-08T20:06:13.538Z,99657.59
2022-08-08T20:08:28.580Z,99679.47
2022-08-08T20:10:54.685Z,99677.94
2022-08-08T20:14:32.178Z,99667.66
2022-08-08T20:16:09.358Z,99675.09
2022-08-08T20:18:52.176Z,99675.28
2022-08-08T20:21:24.949Z,99669.91
2022-08-08T20:23:57.782Z,99675.56
2022-08-08T20:26:29.922Z,99669.34
2022-08-08T20:29:00.462Z,99667.09
2022-08-08T20:31:47.352Z,99642.72
2022-08-08T20:34:30.045Z,99665.88
2022-08-08T20:37:02.338Z,99665.75
2022-08-08T20:39:34.005Z,99666.56
2022-08-08T20:42:08.981Z,99669.19
2022-08-08T20:44:37.495Z,99660.22
2022-08-08T20:47:13.834Z,99669.19
2022-08-08T20:49:46.844Z,99658.97
2022-08-08T20:52:14.308Z,99663.75
2022-08-08T20:54:44.206Z,99639.25
2022-08-08T20:57:18.737Z,99669.81
2022-08-08T20:59:47.634Z,99662.78
2022-08-08T21:02:25.248Z,99662.06
2022-08-08T21:05:01.125Z,99662.91
2022-08-08T21:07:30.874Z,99658.16
2022-08-08T21:10:13.964Z,99661.44
2022-08-08T21:12:41.482Z,99661.66
2022-08-08T21:15:16.296Z,99658.44
2022-08-08T21:17:59.335Z,99658.28
2022-08-08T21:20:34.198Z,99654.75
2022-08-08T21:23:02.617Z,99661.66
2022-08-08T21:25:33.019Z,99636.25
2022-08-08T21:28:09.608Z,99645.72
2022-08-08T21:30:42.932Z,99646.75
2022-08-08T21:33:16.355Z,99644.41
2022-08-08T21:36:19.064Z,99649.66
2022-08-08T21:38:31.034Z,99648.38
2022-08-08T21:40:57.941Z,99651.09
2022-08-08T21:43:33.738Z,99639.19
2022-08-08T21:48:08.232Z,99651.16
2022-08-08T21:48:51.060Z,99649.97
2022-08-08T21:54:17.622Z,99627.88
2022-08-08T21:54:31.915Z,99650.38
2022-08-08T21:57:02.999Z,99653.03
2022-08-08T22:00:02.096Z,99637.72
2022-08-08T22:02:19.443Z,99652.56
2022-08-08T22:04:56.120Z,99648.00
2022-08-08T22:07:39.607Z,99641.34
2022-08-08T22:10:09.744Z,99636.00
2022-08-08T22:12:38.941Z,99642.06
2022-08-08T22:15:07.398Z,99641.06
2022-08-08T22:17:41.508Z,99639.84
2022-08-08T22:20:23.443Z,99633.66
2022-08-08T22:22:52.413Z,99615.22
2022-08-08T22:25:25.057Z,99626.03
2022-08-08T22:28:04.117Z,99626.84
2022-08-08T22:30:41.049Z,99621.00
2022-08-08T22:33:22.193Z,99637.94
2022-08-08T22:36:04.345Z,99627.44
2022-08-08T22:38:39.397Z,99637.19
2022-08-08T22:41:21.675Z,99631.69
2022-08-08T22:44:05.471Z,99635.88
2022-08-08T22:46:34.562Z,99628.97
2022-08-08T22:49:06.053Z,99617.78
2022-08-08T22:51:35.043Z,99634.81
2022-08-08T22:54:34.253Z,99611.81
2022-08-08T22:56:59.273Z,99627.28
2022-08-08T22:59:26.200Z,99616.38
2022-08-08T23:02:04.622Z,99613.28
2022-08-08T23:04:55.955Z,99618.47
2022-08-08T23:07:51.219Z,99604.22
2022-08-08T23:10:21.480Z,99610.19
2022-08-08T23:12:52.352Z,99614.56
2022-08-08T23:16:38.103Z,99609.94
2022-08-08T23:18:12.019Z,99608.13
2022-08-08T23:20:41.090Z,99613.59
2022-08-08T23:23:10.911Z,99601.47
2022-08-08T23:25:45.452Z,99609.19
2022-08-08T23:28:17.711Z,99610.16
2022-08-08T23:30:45.166Z,99607.66
2022-08-08T23:33:18.873Z,99614.50
2022-08-08T23:36:07.053Z,99610.19
2022-08-08T23:38:33.399Z,99605.72
2022-08-08T23:41:00.245Z,99597.47
2022-08-08T23:43:31.606Z,99616.19
2022-08-08T23:49:07.763Z,99602.41
2022-08-08T23:49:15.310Z,99608.41
2022-08-08T23:52:06.057Z,99601.97
2022-08-08T23:54:41.978Z,99602.59
2022-08-08T23:57:27.145Z,99598.78
